Airfield :
LOGIN :

Register | Disclaimer

   EN    FR    IT 

 










Legend :    VFR   Marginal VFR   IFR   Intensive IFR   Very Intensive IFR
Visi :
Ceiling :
>= 8 km
>= 3000ft
5 to 8 km
1000 to 3000 ft
1500m to 5 km
500 to 1000 ft
800 to 1500m
200 to 500 ft
< 800m
< 200 ft
Symbols :   Thunderstorms  Fog  Heavy snow  Heavy precipitations  Wind > 20 kt
SIGMETs :     Misc.  Thunderstorms  Icing  Turbulence  Mountain Waves  Volcanic Ashes







- Airport Elevation : 24 ft
- IATA code : IBZ


LEIB - Ibiza

CURRENT METAR :
  • 190330Z AUTO 09011KT 050V130 7000 +RA FEW006/// SCT009/// BKN014/// 15/14 Q1000

EXPIRED METARs :
  • 190300Z AUTO 10010KT 9999 RA FEW014/// SCT036/// 16/14 Q1001
  • 190230Z AUTO 10011KT 070V130 9999 FEW015/// SCT018/// BKN023/// 17/13 Q1001
  • 190200Z AUTO 09013KT 9999 FEW016/// SCT021/// BKN042/// 17/14 Q1001
  • 190130Z AUTO 07011KT 030V100 9999 -SHRA FEW017/// SCT024/// ///TCU 16/14 Q1001
  • 190100Z AUTO 07011KT 9999 -SHRA FEW018/// SCT024/// BKN033/// ///TCU 17/14 Q1002

TAF TAF LEIB
Valid from the 19 at 03:00 until the 20 at 03:00 UTC


190200Z 1903/2003 08015KT 9999 SCT020 TX17/1912Z TN12/1905Z
TEMPO 1903/1916 05015G25KT 4000 SHRA BKN020 FEW022TCU
BECMG 1904/1907 22012KT
BECMG 1916/1918 05015KT
PROB40
TEMPO 1905/1909 1500 +TSRA BKN015 SCT018CB
BECMG 2000/2002 33005KT
No reported NOTAMs for that airfield.
2 SIGMETs reported for the Barcelona FIR (LECB) :
 
SIGMET 8  cancelation
LECB SIGMET 9 VALID 182312/192200 LEVA
LECB BARCELONA FIR/UIR CNL SIGMET 8 VALID 182025/192200=
Embedded thunderstorms
LECB SIGMET 1 VALID 190100/190500 LEVA
LECB BARCELONA FIR/UIR EMBD TS FCST WI N3842 W00046 - N4009 E00330 - N3857 E00432 - N3621 W00103 - N3626 W00103 - N3632 W00103 - N3743 W00114 - N3842 W00046 TOP FL350 MOV N NC=



MET'MAP, your aeronautical weather chart ! - Copyright ORBIFLY December 2007 - Disclaimer

ORBIFLY MET'MAP TEAM :

Programming & Development : Alexandra Zaïnal
Concept & Development : Baudouin d'Aumeries
Co-Development & Prog : Marc-Olivier Méhu
Technical & hardware support : Manuel Goepfert

Contact : metmap@orbifly.com




SOURCES & CREDITS :

   NOAA